Time;durP1;ratioP1;P1;durP2;ratioP2;P2;SDS_P1;SDS_P2;PMS_P1;PMS_P2;Temp;Humidity;BMP_temperature;BMP_pressure;BME280_temperature;BME280_humidity;BME280_pressure;Samples;Min_cycle;Max_cycle;Signal;HPM_P1;HPM_P2
2023/08/25 00:04:18;;;;;;;3.67;1.58;;;19.00;1.00;;;;;;9932441;29;20268;-79
2023/08/25 00:09:38;;;;;;;2.65;1.65;;;19.00;99.90;;;;;;9945200;29;20229;-80
2023/08/25 00:15:00;;;;;;;3.05;1.60;;;18.90;99.90;;;;;;9942730;29;20257;-82
2023/08/25 00:20:21;;;;;;;3.17;2.00;;;18.90;1.00;;;;;;9930325;29;20197;-90
2023/08/25 00:25:44;;;;;;;2.78;1.85;;;18.90;1.00;;;;;;9945494;29;20213;-80
2023/08/25 00:31:05;;;;;;;3.25;1.77;;;18.80;42.70;;;;;;9944903;29;20225;-83
2023/08/25 00:36:27;;;;;;;1.48;1.38;;;18.80;99.90;;;;;;9944524;29;20305;-80
2023/08/25 00:41:48;;;;;;;2.83;1.58;;;18.80;99.90;;;;;;9944478;29;20284;-79
2023/08/25 00:47:10;;;;;;;3.05;1.52;;;18.80;99.90;;;;;;9942013;29;20211;-79
2023/08/25 00:52:31;;;;;;;2.53;1.77;;;18.80;77.70;;;;;;9930073;29;20205;-80
2023/08/25 00:57:53;;;;;;;1.70;1.42;;;18.70;1.00;;;;;;9941726;29;20235;-80
2023/08/25 01:03:14;;;;;;;3.10;1.85;;;18.70;1.00;;;;;;9941894;29;20272;-79
2023/08/25 01:08:38;;;;;;;2.25;1.60;;;18.70;1.00;;;;;;9941366;29;20209;-84
2023/08/25 01:14:08;;;;;;;1.65;1.52;;;18.70;1.00;;;;;;9941330;29;20458;-80
2023/08/25 01:19:45;;;;;;;3.60;2.20;;;18.70;1.00;;;;;;9941066;29;20232;-79
2023/08/25 01:25:21;;;;;;;3.92;1.98;;;18.70;1.00;;;;;;9940946;29;20212;-81
2023/08/25 01:30:44;;;;;;;5.25;2.15;;;18.60;1.00;;;;;;9927917;29;20280;-80
2023/08/25 01:36:27;;;;;;;4.38;2.47;;;18.60;1.00;;;;;;9940726;29;20240;-81
2023/08/25 01:41:58;;;;;;;4.25;2.33;;;18.50;1.00;;;;;;9943037;29;20240;-88
2023/08/25 01:47:23;;;;;;;3.50;2.22;;;18.50;99.90;;;;;;9928289;30;20204;-80
2023/08/25 01:52:45;;;;;;;2.42;1.80;;;18.50;1.00;;;;;;9942659;29;20371;-80
2023/08/25 01:58:06;;;;;;;4.10;2.13;;;18.60;1.00;;;;;;9942426;29;20527;-85
2023/08/25 02:03:28;;;;;;;4.47;1.70;;;18.60;99.90;;;;;;9942798;29;20209;-91
2023/08/25 02:08:49;;;;;;;2.55;1.70;;;18.70;99.90;;;;;;9943238;29;20213;-91
2023/08/25 02:14:10;;;;;;;5.32;2.92;;;18.60;99.90;;;;;;9940577;29;20245;-90
2023/08/25 02:19:31;;;;;;;4.68;2.47;;;18.70;1.00;;;;;;9914807;29;20209;-87
2023/08/25 02:24:53;;;;;;;3.95;2.35;;;18.60;1.00;;;;;;9948887;29;20239;-89
2023/08/25 02:30:14;;;;;;;3.90;2.72;;;18.60;1.00;;;;;;9951713;29;20223;-88
2023/08/25 02:35:35;;;;;;;4.50;2.30;;;18.60;99.90;;;;;;9929226;29;20468;-83
2023/08/25 02:40:56;;;;;;;4.05;2.28;;;18.70;1.00;;;;;;9939907;29;20220;-79
2023/08/25 02:46:18;;;;;;;2.08;1.88;;;18.70;1.00;;;;;;9919954;29;20213;-80
2023/08/25 02:51:39;;;;;;;2.83;2.05;;;18.70;1.00;;;;;;9936178;29;20447;-79
2023/08/25 02:57:00;;;;;;;2.42;2.08;;;18.70;99.90;;;;;;9946273;29;20390;-80
2023/08/25 03:02:22;;;;;;;3.53;2.28;;;18.80;1.00;;;;;;9935946;29;20212;-89
2023/08/25 03:07:44;;;;;;;4.38;2.67;;;18.70;99.90;;;;;;9946599;29;20227;-88
2023/08/25 03:13:05;;;;;;;2.70;2.08;;;18.70;99.90;;;;;;9934048;29;20244;-89
2023/08/25 03:18:27;;;;;;;2.17;1.95;;;18.70;99.90;;;;;;9921756;29;20278;-80
2023/08/25 03:23:48;;;;;;;3.22;2.55;;;18.70;1.00;;;;;;9936892;29;20279;-80
2023/08/25 03:29:10;;;;;;;2.58;2.15;;;18.70;1.00;;;;;;9964203;29;20209;-81
2023/08/25 03:34:31;;;;;;;2.42;2.20;;;18.80;1.00;;;;;;9954069;29;20221;-79
2023/08/25 03:39:53;;;;;;;3.17;2.20;;;18.80;96.70;;;;;;9932198;29;20201;-80
2023/08/25 03:45:14;;;;;;;3.30;2.40;;;18.80;1.70;;;;;;9944261;29;20259;-80
2023/08/25 03:50:36;;;;;;;2.97;2.03;;;18.70;1.00;;;;;;9930929;29;20556;-80
2023/08/25 03:55:57;;;;;;;3.90;2.35;;;18.80;1.00;;;;;;9942885;29;20623;-79
2023/08/25 04:01:18;;;;;;;5.18;3.45;;;18.70;99.90;;;;;;9945750;29;20224;-80
2023/08/25 04:06:40;;;;;;;4.50;2.85;;;18.80;1.00;;;;;;9932122;29;20205;-79
2023/08/25 04:12:03;;;;;;;3.72;2.72;;;18.70;1.00;;;;;;9930536;30;20393;-79
2023/08/25 04:17:24;;;;;;;2.83;2.30;;;18.70;1.00;;;;;;9945069;29;20547;-80
2023/08/25 04:22:46;;;;;;;4.18;2.45;;;18.70;1.00;;;;;;9930188;30;20437;-79
2023/08/25 04:28:07;;;;;;;5.20;2.78;;;18.60;1.00;;;;;;9929699;29;20216;-79
2023/08/25 04:33:29;;;;;;;3.65;2.53;;;18.60;99.90;;;;;;9942487;29;20201;-80
2023/08/25 04:38:50;;;;;;;4.32;3.00;;;18.60;99.90;;;;;;9944474;29;20232;-85
2023/08/25 04:44:15;;;;;;;6.15;3.10;;;18.60;1.00;;;;;;9917130;30;20235;-81
2023/08/25 04:49:36;;;;;;;4.28;3.15;;;18.60;99.90;;;;;;9941775;29;20201;-79
2023/08/25 04:54:57;;;;;;;4.68;3.47;;;18.60;1.00;;;;;;9929142;29;20304;-80
2023/08/25 05:00:18;;;;;;;5.18;3.88;;;18.60;46.10;;;;;;9928655;29;20197;-79
2023/08/25 05:05:39;;;;;;;6.82;3.60;;;18.60;99.90;;;;;;9915419;29;20213;-79
2023/08/25 05:11:01;;;;;;;6.15;3.47;;;18.60;1.00;;;;;;9930106;29;20244;-80
2023/08/25 05:16:22;;;;;;;5.60;4.25;;;18.60;1.00;;;;;;9941270;29;20239;-80
2023/08/25 05:21:48;;;;;;;6.85;3.60;;;18.70;90.00;;;;;;9928199;29;20224;-79
2023/08/25 05:27:10;;;;;;;5.25;3.92;;;18.70;99.90;;;;;;9943034;29;20213;-79
2023/08/25 05:32:31;;;;;;;4.68;3.42;;;18.80;99.90;;;;;;9927836;29;20202;-80
2023/08/25 05:38:15;;;;;;;5.38;3.88;;;18.80;1.00;;;;;;9928285;30;20565;-79
2023/08/25 05:43:36;;;;;;;7.05;3.83;;;18.80;1.00;;;;;;9940413;29;20468;-80
2023/08/25 05:48:58;;;;;;;7.30;4.43;;;19.00;1.00;;;;;;9940795;29;20209;-80
2023/08/25 05:54:19;;;;;;;5.97;3.30;;;19.00;99.90;;;;;;9927254;30;20213;-80
2023/08/25 05:59:41;;;;;;;6.72;4.40;;;19.10;1.00;;;;;;9927933;29;20276;-82
2023/08/25 06:05:03;;;;;;;8.50;4.65;;;19.20;1.00;;;;;;9940865;29;20201;-86
2023/08/25 06:10:24;;;;;;;4.22;3.50;;;19.20;99.90;;;;;;9928263;29;20250;-82
2023/08/25 06:15:46;;;;;;;6.97;4.65;;;19.20;99.80;;;;;;9927220;30;20286;-80
2023/08/25 06:21:08;;;;;;;4.57;4.13;;;19.20;1.00;;;;;;9932921;29;20273;-80
2023/08/25 06:26:29;;;;;;;3.92;3.40;;;19.30;99.90;;;;;;9946980;29;20201;-79
2023/08/25 06:31:51;;;;;;;9.05;5.28;;;19.30;1.00;;;;;;9936607;30;20198;-80
2023/08/25 06:37:12;;;;;;;7.18;4.13;;;19.30;1.00;;;;;;9949942;29;20225;-79
2023/08/25 06:42:33;;;;;;;4.28;3.38;;;19.30;87.50;;;;;;9950681;29;20209;-80
2023/08/25 06:47:56;;;;;;;5.63;3.60;;;19.50;1.00;;;;;;9955318;29;20204;-79
2023/08/25 06:53:18;;;;;;;5.35;3.67;;;19.60;61.60;;;;;;9934262;30;20216;-84
2023/08/25 06:58:39;;;;;;;6.07;3.80;;;19.70;99.90;;;;;;9908828;30;20238;-84
2023/08/25 07:04:00;;;;;;;5.93;4.13;;;19.60;99.90;;;;;;9910939;29;20240;-81
2023/08/25 07:09:21;;;;;;;5.70;4.03;;;19.60;1.00;;;;;;9908524;30;20198;-80
2023/08/25 07:14:43;;;;;;;16.05;12.27;;;19.60;1.00;;;;;;9910178;30;20268;-82
2023/08/25 07:20:05;;;;;;;38.55;21.83;;;19.70;1.00;;;;;;9910205;29;20214;-83
2023/08/25 07:25:26;;;;;;;9.68;6.55;;;19.80;99.90;;;;;;9931913;30;20205;-83
2023/08/25 07:30:47;;;;;;;7.78;4.55;;;20.00;1.00;;;;;;9946834;29;20378;-81
2023/08/25 07:36:09;;;;;;;7.03;4.18;;;20.00;1.00;;;;;;9932342;29;20618;-85
2023/08/25 07:41:30;;;;;;;9.27;6.38;;;20.00;99.90;;;;;;9944144;29;20193;-80
2023/08/25 07:46:51;;;;;;;6.30;3.60;;;20.00;1.00;;;;;;9932054;30;20205;-82
2023/08/25 07:52:13;;;;;;;11.32;4.65;;;20.10;99.90;;;;;;9935315;29;20213;-85
2023/08/25 07:57:35;;;;;;;8.45;4.32;;;20.20;1.00;;;;;;9945986;29;20233;-89
2023/08/25 08:02:56;;;;;;;15.38;5.88;;;20.30;1.00;;;;;;9933533;29;20205;-80
2023/08/25 08:08:17;;;;;;;13.93;6.40;;;20.40;1.00;;;;;;9937098;30;20202;-80
2023/08/25 08:13:39;;;;;;;9.25;6.03;;;20.50;1.00;;;;;;9943674;29;20312;-80
2023/08/25 08:19:00;;;;;;;13.77;9.05;;;20.60;1.00;;;;;;9943279;29;20244;-82
2023/08/25 08:24:21;;;;;;;22.25;12.88;;;20.50;1.00;;;;;;9930021;30;20201;-80
2023/08/25 08:29:47;;;;;;;19.70;10.30;;;20.60;1.00;;;;;;9931166;29;20201;-85
2023/08/25 08:35:08;;;;;;;9.68;6.18;;;20.70;99.90;;;;;;9930457;29;20229;-87
2023/08/25 08:40:31;;;;;;;9.38;5.72;;;20.80;99.90;;;;;;9944305;29;20213;-81
2023/08/25 08:45:54;;;;;;;12.25;6.47;;;20.80;99.90;;;;;;9944335;29;20209;-81
2023/08/25 08:51:17;;;;;;;14.52;7.50;;;20.90;16.20;;;;;;9943681;29;20381;-82
2023/08/25 08:56:39;;;;;;;10.35;6.25;;;21.00;1.00;;;;;;9917743;29;20279;-83
2023/08/25 09:02:02;;;;;;;11.05;5.43;;;21.20;1.00;;;;;;9904248;29;20243;-83
2023/08/25 09:07:28;;;;;;;13.05;5.80;;;21.30;1.00;;;;;;9893976;29;20213;-80
2023/08/25 09:12:49;;;;;;;10.02;5.00;;;21.40;1.00;;;;;;9916955;29;20238;-84
2023/08/25 09:18:10;;;;;;;14.07;6.05;;;21.50;1.00;;;;;;9892389;29;20245;-80
2023/08/25 09:23:31;;;;;;;10.98;5.80;;;21.60;1.00;;;;;;9927818;29;20214;-80
2023/08/25 09:28:53;;;;;;;12.05;5.80;;;21.70;1.00;;;;;;9929304;29;20229;-84
2023/08/25 09:34:15;;;;;;;8.07;5.22;;;22.40;99.90;;;;;;9928984;29;20208;-86
2023/08/25 09:39:43;;;;;;;8.23;5.47;;;23.00;99.90;;;;;;9928049;30;20237;-82
2023/08/25 09:45:05;;;;;;;12.48;6.13;;;23.30;48.00;;;;;;9928931;29;20213;-86
2023/08/25 09:50:42;;;;;;;12.60;6.57;;;23.60;1.00;;;;;;9927531;29;20217;-90
2023/08/25 09:56:07;;;;;;;15.32;6.55;;;23.80;1.00;;;;;;9921985;30;20237;-78
2023/08/25 10:01:28;;;;;;;6.30;4.40;;;24.10;1.00;;;;;;9947987;29;20268;-80
2023/08/25 10:06:51;;;;;;;8.38;4.65;;;24.30;1.00;;;;;;9935483;29;20213;-78
2023/08/25 10:12:13;;;;;;;9.13;4.32;;;24.60;1.00;;;;;;9947898;29;20417;-89
2023/08/25 10:17:36;;;;;;;9.57;4.88;;;;;;;;;;9949379;29;20248;-81
2023/08/25 10:22:58;;;;;;;14.77;5.00;;;25.10;1.00;;;;;;9935391;30;20208;-84
2023/08/25 10:28:19;;;;;;;10.95;4.03;;;25.20;99.90;;;;;;9949387;29;20266;-82
2023/08/25 10:33:48;;;;;;;11.10;4.15;;;25.10;1.00;;;;;;9921044;30;20268;-80
2023/08/25 10:39:10;;;;;;;10.32;4.38;;;25.10;1.00;;;;;;9934776;29;20304;-80
2023/08/25 10:44:40;;;;;;;7.47;4.05;;;25.50;1.00;;;;;;9934274;29;20492;-81
2023/08/25 10:50:03;;;;;;;5.72;3.92;;;26.20;1.00;;;;;;9945837;29;20209;-79
2023/08/25 10:55:36;;;;;;;7.65;3.97;;;26.80;1.00;;;;;;9947668;29;20229;-80
2023/08/25 11:01:01;;;;;;;4.93;3.50;;;27.10;1.00;;;;;;9933920;29;20205;-80
2023/08/25 11:06:39;;;;;;;8.65;3.50;;;27.10;1.00;;;;;;9933355;29;20205;-80
2023/08/25 11:12:06;;;;;;;5.57;3.20;;;27.30;1.00;;;;;;9947467;29;20260;-81
2023/08/25 11:17:27;;;;;;;5.15;3.17;;;29.90;1.00;;;;;;9932327;30;20547;-80
2023/08/25 11:22:53;;;;;;;6.32;3.22;;;29.90;1.00;;;;;;9947253;29;20206;-83
2023/08/25 11:28:26;;;;;;;6.78;3.90;;;30.50;1.00;;;;;;9933103;29;20258;-83
2023/08/25 11:33:48;;;;;;;7.20;3.55;;;30.80;1.00;;;;;;9932159;30;20492;-80
2023/08/25 11:39:16;;;;;;;8.73;3.50;;;31.20;1.00;;;;;;9931512;29;20245;-83
2023/08/25 11:44:41;;;;;;;5.00;3.60;;;31.50;1.00;;;;;;9946728;29;20496;-84
2023/08/25 11:50:04;;;;;;;5.03;3.40;;;31.60;1.00;;;;;;9944600;29;20212;-84
2023/08/25 11:55:32;;;;;;;5.38;3.20;;;31.80;99.90;;;;;;9946422;29;20536;-85
2023/08/25 12:01:09;;;;;;;6.72;3.50;;;31.80;99.90;;;;;;9946182;29;20205;-87
2023/08/25 12:06:30;;;;;;;6.68;3.88;;;31.60;99.90;;;;;;9943430;29;20263;-80
2023/08/25 12:11:54;;;;;;;9.90;3.78;;;31.10;99.90;;;;;;9929985;29;20247;-80
2023/08/25 12:17:25;;;;;;;6.50;3.80;;;30.70;99.90;;;;;;9944421;29;20421;-82
2023/08/25 12:22:56;;;;;;;4.68;3.60;;;30.70;99.90;;;;;;9931456;30;20201;-78
2023/08/25 12:28:18;;;;;;;7.45;3.78;;;30.30;99.90;;;;;;9929739;29;20209;-82
2023/08/25 12:33:39;;;;;;;8.13;3.78;;;30.30;99.90;;;;;;9944910;29;20209;-80
2023/08/25 12:39:09;;;;;;;5.65;3.63;;;30.30;99.90;;;;;;10598961;27;20566;-81
2023/08/25 12:44:31;;;;;;;6.50;3.67;;;30.50;99.90;;;;;;10585522;28;20294;-80
2023/08/25 12:49:52;;;;;;;4.70;3.80;;;30.30;99.90;;;;;;10596852;28;20221;-81
2023/08/25 12:55:14;;;;;;;7.90;3.88;;;30.10;99.90;;;;;;10596554;28;20296;-80
2023/08/25 13:00:40;;;;;;;6.40;3.58;;;29.90;99.90;;;;;;10582961;28;20201;-81
2023/08/25 13:06:03;;;;;;;5.55;3.90;;;29.80;99.90;;;;;;10596780;28;20190;-81
2023/08/25 13:11:25;;;;;;;5.63;3.30;;;29.90;99.90;;;;;;10596344;28;20409;-81
2023/08/25 13:16:46;;;;;;;7.32;4.00;;;29.80;99.90;;;;;;10596302;28;20297;-81
2023/08/25 13:29:28;;;;;;;4.20;3.80;;;29.70;99.90;;;;;;10597039;28;20175;-81
2023/08/25 13:34:49;;;;;;;6.70;3.78;;;30.10;99.90;;;;;;10596078;28;20237;-80
2023/08/25 13:40:12;;;;;;;6.85;3.38;;;30.00;99.90;;;;;;10555111;28;20202;-81
2023/08/25 13:45:33;;;;;;;10.32;4.05;;;29.80;99.90;;;;;;10562554;28;20222;-80
2023/08/25 13:50:54;;;;;;;6.82;4.40;;;29.50;99.90;;;;;;10571899;28;20201;-81
2023/08/25 13:56:15;;;;;;;5.32;3.40;;;29.20;99.90;;;;;;10552308;28;20222;-82
2023/08/25 14:01:37;;;;;;;5.10;3.60;;;29.30;99.90;;;;;;10551956;28;20381;-80
2023/08/25 14:06:58;;;;;;;5.60;3.45;;;29.30;99.90;;;;;;10566113;28;20194;-80
2023/08/25 14:12:19;;;;;;;4.85;3.30;;;29.10;99.90;;;;;;10551479;28;20198;-81
2023/08/25 14:17:40;;;;;;;5.35;3.20;;;28.90;99.90;;;;;;10566569;28;20399;-80
2023/08/25 14:23:02;;;;;;;4.78;3.50;;;28.80;99.90;;;;;;10565166;28;20187;-81
2023/08/25 14:28:31;;;;;;;6.03;3.55;;;28.90;1.00;;;;;;10552088;28;20375;-81
2023/08/25 14:33:52;;;;;;;5.55;2.97;;;28.80;1.00;;;;;;10566072;28;20285;-81
2023/08/25 14:39:14;;;;;;;11.93;3.15;;;28.80;1.00;;;;;;10522265;28;20298;-80
2023/08/25 14:44:35;;;;;;;4.60;2.90;;;28.70;1.00;;;;;;10508560;28;20195;-81
2023/08/25 14:49:56;;;;;;;4.32;3.00;;;28.70;1.00;;;;;;10528531;28;20252;-81
2023/08/25 14:55:17;;;;;;;5.93;3.17;;;28.60;99.90;;;;;;10549478;28;20214;-88
2023/08/25 15:00:39;;;;;;;5.47;3.10;;;28.30;99.90;;;;;;10562988;28;20198;-83
2023/08/25 15:06:01;;;;;;;7.50;3.13;;;28.20;99.90;;;;;;10563705;28;20190;-81
2023/08/25 15:11:22;;;;;;;4.88;3.28;;;28.10;99.90;;;;;;10535162;28;20195;-81
2023/08/25 15:16:44;;;;;;;11.35;3.45;;;28.00;99.90;;;;;;10564133;28;20224;-80
2023/08/25 15:22:05;;;;;;;5.72;3.10;;;28.00;99.90;;;;;;10564000;28;20527;-82
2023/08/25 15:27:26;;;;;;;4.55;2.80;;;28.00;99.90;;;;;;10548677;28;20585;-80
2023/08/25 15:32:48;;;;;;;4.85;2.92;;;28.00;99.90;;;;;;10548333;28;20362;-81
2023/08/25 15:38:09;;;;;;;3.13;2.50;;;27.90;99.90;;;;;;10547246;28;20457;-80
2023/08/25 15:43:30;;;;;;;6.13;2.40;;;27.80;99.90;;;;;;10548101;28;20435;-82
2023/08/25 15:48:51;;;;;;;4.85;2.60;;;27.70;99.90;;;;;;10562819;28;20247;-81
2023/08/25 15:54:13;;;;;;;2.53;2.30;;;27.70;99.90;;;;;;10533517;28;20233;-83
2023/08/25 15:59:34;;;;;;;3.78;2.38;;;27.70;99.90;;;;;;10533671;28;20206;-86
2023/08/25 16:04:56;;;;;;;3.75;2.40;;;27.70;99.90;;;;;;10561629;28;20422;-85
2023/08/25 16:10:18;;;;;;;3.17;2.53;;;27.70;99.90;;;;;;10532829;28;20224;-81
2023/08/25 16:15:41;;;;;;;4.18;2.65;;;27.70;99.90;;;;;;10546633;28;20229;-80
2023/08/25 16:21:03;;;;;;;4.00;2.60;;;27.70;99.90;;;;;;10532811;28;20262;-89
2023/08/25 16:26:26;;;;;;;4.82;2.75;;;27.60;1.00;;;;;;10546657;28;20198;-80
2023/08/25 16:31:47;;;;;;;4.85;3.25;;;27.60;1.00;;;;;;10546541;28;20251;-84
2023/08/25 16:37:09;;;;;;;5.10;3.78;;;27.40;99.90;;;;;;10531972;28;20242;-87
2023/08/25 16:42:31;;;;;;;5.00;3.65;;;27.30;1.00;;;;;;10546435;28;20202;-84
2023/08/25 16:47:54;;;;;;;6.38;4.30;;;27.20;1.00;;;;;;10561314;28;20194;-80
2023/08/25 16:53:16;;;;;;;6.55;4.40;;;27.10;1.00;;;;;;10560663;28;20241;-81
2023/08/25 16:58:38;;;;;;;6.75;4.30;;;26.90;1.00;;;;;;10521158;28;20259;-80
2023/08/25 17:03:59;;;;;;;5.93;4.13;;;26.90;1.00;;;;;;10520716;28;20191;-82
2023/08/25 17:09:20;;;;;;;5.53;4.07;;;26.90;1.00;;;;;;10518311;28;20211;-82
2023/08/25 17:14:41;;;;;;;6.18;4.18;;;26.80;1.00;;;;;;10519092;28;20500;-81
2023/08/25 17:20:06;;;;;;;8.77;4.40;;;26.70;1.00;;;;;;10503888;28;20191;-80
2023/08/25 17:25:27;;;;;;;5.88;4.38;;;26.50;1.00;;;;;;10565638;28;20203;-81
2023/08/25 17:30:48;;;;;;;6.70;5.03;;;26.50;1.00;;;;;;10568417;28;20196;-80
2023/08/25 17:36:14;;;;;;;11.27;4.70;;;26.40;1.00;;;;;;10566892;28;20321;-83
2023/08/25 17:41:35;;;;;;;10.50;5.10;;;;;;;;;;10567298;28;20486;-81
2023/08/25 17:46:56;;;;;;;12.65;6.63;;;26.00;1.00;;;;;;10539569;28;20269;-81
2023/08/25 17:52:18;;;;;;;12.10;6.38;;;26.00;1.00;;;;;;10558340;28;20194;-80
2023/08/25 17:57:38;;;;;;;12.93;7.60;;;25.90;1.00;;;;;;10569259;28;20220;-82
2023/08/25 18:03:00;;;;;;;10.50;7.07;;;25.80;3.10;;;;;;10577761;28;20194;-85
2023/08/25 18:08:21;;;;;;;10.45;6.85;;;25.70;1.00;;;;;;10578759;28;20282;-85
2023/08/25 18:13:42;;;;;;;12.57;7.00;;;25.70;1.00;;;;;;10555957;28;20245;-85
2023/08/25 18:19:03;;;;;;;8.50;6.00;;;25.60;1.00;;;;;;10554520;28;20412;-81
2023/08/25 18:24:25;;;;;;;8.05;5.82;;;25.50;17.80;;;;;;10568578;28;20186;-84
2023/08/25 18:29:46;;;;;;;11.57;5.55;;;;;;;;;;10568274;28;20198;-81
2023/08/25 18:35:08;;;;;;;6.35;5.00;;;;;;;;;;10569363;28;20280;-82
2023/08/25 18:40:29;;;;;;;6.57;5.07;;;24.80;1.00;;;;;;10567979;28;20228;-80
2023/08/25 18:46:01;;;;;;;7.07;4.88;;;24.70;1.00;;;;;;10553017;28;20190;-85
2023/08/25 18:51:22;;;;;;;4.90;4.32;;;24.50;1.00;;;;;;10569636;28;20276;-84
2023/08/25 18:56:45;;;;;;;5.63;4.47;;;24.40;1.00;;;;;;10565767;28;20222;-85
2023/08/25 19:02:06;;;;;;;10.48;4.82;;;24.30;1.00;;;;;;10550659;28;20523;-81
2023/08/25 19:07:28;;;;;;;11.60;6.20;;;24.20;1.00;;;;;;10565577;28;20262;-80
2023/08/25 19:12:49;;;;;;;9.60;6.55;;;24.10;1.00;;;;;;10536610;28;20195;-80
2023/08/25 19:18:11;;;;;;;6.78;4.65;;;24.00;1.00;;;;;;10567555;28;20285;-80
2023/08/25 19:23:33;;;;;;;5.25;4.10;;;24.00;1.00;;;;;;10564895;28;20209;-81
2023/08/25 19:28:54;;;;;;;4.45;3.60;;;23.90;1.00;;;;;;10562826;28;20244;-82
2023/08/25 19:34:15;;;;;;;6.50;3.58;;;23.90;1.00;;;;;;10562993;28;20186;-81
2023/08/25 19:39:37;;;;;;;3.25;2.70;;;;;;;;;;10540722;28;20264;-85
2023/08/25 19:44:58;;;;;;;6.82;3.92;;;23.80;99.90;;;;;;10561610;28;20194;-81
2023/08/25 19:50:20;;;;;;;8.73;4.57;;;;;;;;;;10547550;28;20205;-83
2023/08/25 19:55:41;;;;;;;9.38;4.75;;;23.60;1.00;;;;;;10547400;28;20221;-80
2023/08/25 20:01:03;;;;;;;7.47;4.25;;;23.30;1.00;;;;;;10547718;28;20198;-83
2023/08/25 20:06:26;;;;;;;7.07;4.28;;;;;;;;;;10533458;28;20194;-80
2023/08/25 20:11:47;;;;;;;4.57;3.83;;;23.20;1.00;;;;;;10561385;28;20266;-83
2023/08/25 20:17:09;;;;;;;6.90;3.92;;;22.80;99.90;;;;;;10547307;28;20222;-79
2023/08/25 20:22:30;;;;;;;6.53;4.60;;;22.70;99.90;;;;;;10547329;28;20193;-81
2023/08/25 20:27:51;;;;;;;8.52;4.22;;;22.70;1.00;;;;;;10546709;28;20229;-85
2023/08/25 20:33:16;;;;;;;5.30;4.10;;;;;;;;;;10546704;28;20198;-83
2023/08/25 20:38:37;;;;;;;5.20;3.72;;;22.40;99.90;;;;;;10545636;28;20317;-87
2023/08/25 20:43:59;;;;;;;5.40;3.28;;;22.20;1.00;;;;;;10545925;28;20229;-80
2023/08/25 20:49:20;;;;;;;8.57;4.13;;;22.20;1.00;;;;;;10560674;28;20194;-87
2023/08/25 20:54:41;;;;;;;5.50;3.88;;;22.20;1.00;;;;;;10560045;28;20504;-79
2023/08/25 21:00:05;;;;;;;5.03;3.78;;;22.20;99.90;;;;;;10567113;28;20213;-80
2023/08/25 21:05:26;;;;;;;5.55;4.65;;;22.00;1.00;;;;;;10554393;28;20232;-82
2023/08/25 21:10:48;;;;;;;7.68;3.78;;;21.90;1.00;;;;;;10569579;28;20191;-84
2023/08/25 21:16:10;;;;;;;5.78;3.90;;;21.90;1.00;;;;;;10540007;28;20278;-85
2023/08/25 21:21:32;;;;;;;7.15;4.53;;;22.00;1.00;;;;;;10569165;28;20213;-83
2023/08/25 21:26:53;;;;;;;6.63;4.60;;;22.00;99.90;;;;;;10567840;28;20268;-85
2023/08/25 21:32:14;;;;;;;8.88;5.03;;;22.00;1.00;;;;;;10553459;28;20500;-83
2023/08/25 21:37:35;;;;;;;9.93;5.13;;;22.00;1.00;;;;;;10552580;28;20246;-83
2023/08/25 21:42:56;;;;;;;10.55;5.43;;;22.00;1.00;;;;;;10553045;28;20504;-81
2023/08/25 21:48:18;;;;;;;14.18;5.80;;;22.00;1.00;;;;;;10567289;28;20210;-85
2023/08/25 21:53:39;;;;;;;9.15;5.65;;;22.00;1.00;;;;;;10552286;28;20501;-86
2023/08/25 21:59:00;;;;;;;8.70;5.75;;;22.00;99.90;;;;;;10552451;28;20305;-83
2023/08/25 22:04:22;;;;;;;8.23;5.82;;;22.00;1.00;;;;;;10552311;28;20376;-83
2023/08/25 22:09:44;;;;;;;8.85;5.80;;;21.90;1.00;;;;;;10565903;28;20530;-80
2023/08/25 22:15:06;;;;;;;9.82;6.38;;;21.90;1.00;;;;;;10537937;28;20273;-83
2023/08/25 22:20:27;;;;;;;5.07;4.45;;;21.80;1.00;;;;;;10537607;28;20205;-85
2023/08/25 22:25:48;;;;;;;6.70;4.53;;;21.60;1.00;;;;;;10551725;28;20209;-82
2023/08/25 22:31:10;;;;;;;6.18;5.00;;;21.50;1.00;;;;;;10537373;28;20508;-83
2023/08/25 22:36:31;;;;;;;7.95;5.85;;;21.40;1.00;;;;;;10564792;28;20419;-80
2023/08/25 22:41:52;;;;;;;6.82;5.18;;;;;;;;;;10536736;28;20217;-82
2023/08/25 22:47:14;;;;;;;10.57;5.00;;;;;;;;;;10550649;28;20415;-83
2023/08/25 22:52:35;;;;;;;6.07;4.15;;;;;;;;;;10525056;28;20449;-80
2023/08/25 22:57:57;;;;;;;5.30;4.40;;;;;;;;;;10547213;28;20241;-84
2023/08/25 23:03:19;;;;;;;6.53;4.13;;;;;;;;;;10564308;28;20199;-86
2023/08/25 23:08:40;;;;;;;4.75;4.00;;;;;;;;;;10564273;28;20270;-86
2023/08/25 23:14:02;;;;;;;6.57;5.07;;;;;;;;;;10535345;28;20493;-81
2023/08/25 23:19:23;;;;;;;4.72;4.25;;;;;;;;;;10548231;28;20234;-83
2023/08/25 23:24:46;;;;;;;7.45;4.57;;;;;;;;;;10549219;28;20218;-87
2023/08/25 23:30:07;;;;;;;6.35;4.53;;;;;;;;;;10563458;28;20210;-83
2023/08/25 23:35:32;;;;;;;9.18;5.70;;;;;;;;;;10562097;28;20242;-82
2023/08/25 23:40:54;;;;;;;5.38;4.07;;;;;;;;;;10534984;28;20338;-86
2023/08/25 23:46:15;;;;;;;5.30;4.78;;;;;;;;;;10520679;28;20195;-84
2023/08/25 23:51:36;;;;;;;5.60;4.72;;;;;;;;;;10554217;28;20382;-83
2023/08/25 23:56:57;;;;;;;8.30;4.43;;;;;;;;;;10547746;28;20301;-84
